Time;durP1;ratioP1;P1;durP2;ratioP2;P2;SDS_P1;SDS_P2;PMS_P1;PMS_P2;Temp;Humidity;BMP_temperature;BMP_pressure;BME280_temperature;BME280_humidity;BME280_pressure;Samples;Min_cycle;Max_cycle;Signal;HPM_P1;HPM_P2
2023/01/10 00:00:36;;;;;;;1.42;0.75;;;28.20;92.60;;;;;;5005716;28;20029;-62
2023/01/10 00:03:05;;;;;;;4.38;1.08;;;28.40;92.60;;;;;;5000578;28;20026;-62
2023/01/10 00:05:32;;;;;;;6.15;1.10;;;28.70;90.90;;;;;;4997481;28;20038;-65
2023/01/10 00:08:00;;;;;;;1.00;0.70;;;28.60;90.10;;;;;;5006378;28;20088;-65
2023/01/10 00:10:28;;;;;;;1.58;0.77;;;28.40;90.90;;;;;;5000070;28;20073;-64
2023/01/10 00:15:40;;;;;;;2.10;0.90;;;28.30;90.50;;;;;;5006547;28;20025;-62
2023/01/10 00:18:07;;;;;;;1.45;0.60;;;28.30;90.80;;;;;;5005756;28;20520;-70
2023/01/10 00:20:34;;;;;;;6.30;1.40;;;28.60;91.20;;;;;;5006455;28;20018;-64
2023/01/10 00:23:02;;;;;;;4.03;1.00;;;28.60;91.00;;;;;;5005996;28;20026;-70
2023/01/10 00:25:29;;;;;;;2.80;1.00;;;28.80;91.00;;;;;;5006305;28;20456;-64
2023/01/10 00:30:41;;;;;;;2.75;1.23;;;29.40;91.10;;;;;;5002825;28;20547;-63
2023/01/10 00:33:16;;;;;;;5.25;1.00;;;29.90;90.20;;;;;;4999112;28;20033;-64
2023/01/10 00:35:43;;;;;;;2.45;1.02;;;30.00;89.40;;;;;;5005143;28;20369;-64
2023/01/10 00:38:09;;;;;;;2.15;1.27;;;29.90;89.90;;;;;;5005930;28;20133;-71
2023/01/10 00:40:36;;;;;;;2.78;1.20;;;29.40;90.40;;;;;;5005993;28;20481;-62
2023/01/10 00:45:49;;;;;;;2.22;1.08;;;29.50;90.60;;;;;;5006383;28;20416;-65
2023/01/10 00:48:19;;;;;;;2.55;0.85;;;29.90;90.20;;;;;;5006048;28;20030;-62
2023/01/10 00:50:46;;;;;;;3.15;1.42;;;30.10;90.30;;;;;;5004803;28;20033;-63
2023/01/10 00:53:13;;;;;;;2.42;0.93;;;30.30;89.40;;;;;;5005487;28;20539;-70
2023/01/10 00:55:40;;;;;;;1.58;0.88;;;30.40;90.80;;;;;;5005535;28;20028;-62
2023/01/10 00:58:10;;;;;;;4.03;1.15;;;30.70;91.20;;;;;;5005532;28;20507;-62
2023/01/10 01:00:38;;;;;;;3.25;1.20;;;30.80;91.30;;;;;;5006289;28;20084;-64
2023/01/10 01:03:06;;;;;;;2.25;1.00;;;30.70;89.50;;;;;;5010076;28;20538;-70
2023/01/10 01:05:39;;;;;;;3.13;1.27;;;30.60;90.40;;;;;;5007090;28;20030;-64
2023/01/10 01:08:05;;;;;;;;;;;30.60;89.20;;;;;;5006368;28;20539;-70
2023/01/10 01:10:32;;;;;;;2.08;1.10;;;30.60;90.00;;;;;;5006539;28;19909;-65
2023/01/10 01:13:06;;;;;;;1.65;0.90;;;30.80;89.30;;;;;;5008712;28;20030;-65
2023/01/10 01:15:34;;;;;;;2.13;0.90;;;31.00;89.00;;;;;;5008735;28;20492;-64
2023/01/10 01:18:01;;;;;;;3.08;1.10;;;30.90;88.40;;;;;;5009980;28;20021;-70
2023/01/10 01:20:28;;;;;;;1.95;0.90;;;31.00;89.70;;;;;;5008525;28;20030;-70
2023/01/10 01:22:55;;;;;;;3.25;1.08;;;31.40;88.00;;;;;;5008623;28;20033;-64
2023/01/10 01:25:22;;;;;;;1.90;0.90;;;31.90;85.80;;;;;;5008767;28;20065;-63
2023/01/10 01:27:49;;;;;;;2.65;0.90;;;31.50;84.80;;;;;;5011413;28;20022;-70
2023/01/10 01:30:16;;;;;;;3.80;1.00;;;31.50;88.80;;;;;;5054992;23;20080;-63
2023/01/10 01:32:43;;;;;;;2.72;1.00;;;31.80;85.30;;;;;;5029665;28;20101;-64
2023/01/10 01:35:14;;;;;;;1.50;0.95;;;32.10;85.20;;;;;;5028848;28;20200;-60
2023/01/10 01:37:41;;;;;;;1.67;0.70;;;31.90;84.60;;;;;;5025006;28;20136;-61
2023/01/10 01:40:17;;;;;;;1.85;1.02;;;31.60;82.10;;;;;;5028862;28;20013;-61
2023/01/10 01:42:45;;;;;;;3.22;0.98;;;31.50;82.10;;;;;;5029375;28;20022;-65
2023/01/10 01:45:53;;;;;;;1.40;0.68;;;31.50;83.10;;;;;;5029503;28;20056;-71
2023/01/10 01:48:38;;;;;;;0.88;0.68;;;31.80;81.20;;;;;;5006691;28;20046;-61
2023/01/10 01:51:09;;;;;;;2.10;0.65;;;31.80;82.30;;;;;;4991475;28;20053;-74
2023/01/10 01:53:52;;;;;;;1.65;0.75;;;31.90;80.10;;;;;;5005414;28;20370;-64
2023/01/10 01:56:33;;;;;;;1.27;0.75;;;31.90;80.20;;;;;;5009854;28;20599;-72
2023/01/10 01:59:08;;;;;;;1.27;0.70;;;31.80;80.40;;;;;;5008383;28;20060;-65
2023/01/10 02:01:37;;;;;;;3.72;0.80;;;31.90;82.10;;;;;;5005559;28;20026;-61
2023/01/10 02:04:16;;;;;;;2.83;0.88;;;32.00;80.20;;;;;;5005828;28;20026;-61
2023/01/10 02:06:46;;;;;;;3.28;0.65;;;31.70;80.20;;;;;;4996124;28;20044;-70
2023/01/10 02:09:40;;;;;;;3.80;1.08;;;31.80;80.80;;;;;;5005316;28;20609;-63
2023/01/10 02:12:08;;;;;;;2.05;0.90;;;32.00;79.20;;;;;;5004397;28;20127;-72
2023/01/10 02:14:37;;;;;;;1.30;0.60;;;32.10;79.90;;;;;;4997916;28;20033;-60
2023/01/10 02:17:04;;;;;;;1.67;0.77;;;32.10;81.30;;;;;;4997765;28;20076;-63
2023/01/10 02:19:51;;;;;;;4.47;0.98;;;32.50;83.00;;;;;;5019299;28;20048;-62
2023/01/10 02:22:49;;;;;;;4.38;0.75;;;32.10;80.50;;;;;;5025859;28;20505;-64
2023/01/10 02:25:37;;;;;;;2.70;1.17;;;32.00;81.50;;;;;;5021135;28;20033;-71
2023/01/10 02:28:04;;;;;;;1.67;0.55;;;31.60;81.90;;;;;;5024534;28;20360;-65
2023/01/10 02:31:17;;;;;;;2.45;0.90;;;32.00;83.80;;;;;;5027096;28;20525;-61
2023/01/10 02:33:57;;;;;;;4.57;0.80;;;32.60;80.90;;;;;;4982493;28;20042;-67
2023/01/10 02:36:56;;;;;;;1.88;0.80;;;32.60;80.10;;;;;;4986221;28;20489;-69
2023/01/10 02:40:02;;;;;;;2.58;0.93;;;32.20;80.60;;;;;;4909188;29;20036;-64
2023/01/10 02:42:38;;;;;;;3.35;0.85;;;32.10;84.10;;;;;;4832047;29;20038;-70
2023/01/10 02:45:16;;;;;;;2.67;0.90;;;32.50;83.00;;;;;;4831237;29;20208;-64
2023/01/10 02:47:43;;;;;;;1.92;0.68;;;32.10;85.00;;;;;;4833641;29;20566;-68
2023/01/10 02:50:30;;;;;;;2.75;0.90;;;32.50;81.40;;;;;;4838709;29;20397;-69
2023/01/10 02:53:01;;;;;;;1.95;1.00;;;32.40;81.80;;;;;;4835967;29;20033;-64
2023/01/10 02:55:52;;;;;;;4.77;1.23;;;32.40;84.40;;;;;;4833234;29;20037;-71
2023/01/10 02:58:38;;;;;;;2.30;1.20;;;32.20;83.30;;;;;;4832826;29;20457;-67
2023/01/10 03:01:11;;;;;;;1.70;0.70;;;32.50;82.70;;;;;;4833081;29;20050;-67
2023/01/10 03:04:03;;;;;;;5.00;0.93;;;32.40;84.10;;;;;;4832363;29;20626;-73
2023/01/10 03:07:02;;;;;;;5.10;1.10;;;32.70;86.20;;;;;;4836653;29;20038;-72
2023/01/10 03:09:39;;;;;;;1.48;0.73;;;33.30;83.70;;;;;;4888286;29;20404;-65
2023/01/10 03:12:56;;;;;;;2.42;0.88;;;33.30;83.20;;;;;;4887162;29;20032;-70
2023/01/10 03:15:27;;;;;;;2.88;1.10;;;33.10;83.40;;;;;;4836462;29;20126;-63
2023/01/10 03:17:58;;;;;;;2.53;0.98;;;32.80;83.20;;;;;;4945679;29;20300;-74
2023/01/10 03:20:28;;;;;;;3.33;1.42;;;32.10;85.10;;;;;;4944486;29;20035;-73
2023/01/10 03:22:55;;;;;;;2.80;0.90;;;31.90;85.40;;;;;;4941290;29;20529;-70
2023/01/10 03:25:27;;;;;;;2.45;0.90;;;31.80;85.50;;;;;;4939138;29;20043;-64
2023/01/10 03:28:12;;;;;;;3.55;0.93;;;31.60;85.70;;;;;;4938319;29;20035;-71
2023/01/10 03:31:14;;;;;;;4.10;0.95;;;32.00;85.80;;;;;;4940830;29;20051;-62
2023/01/10 03:33:41;;;;;;;3.05;1.13;;;32.30;85.30;;;;;;4937565;29;20258;-63
2023/01/10 03:36:29;;;;;;;2.15;1.10;;;32.70;84.90;;;;;;4940011;28;20048;-72
2023/01/10 03:39:31;;;;;;;3.47;1.10;;;32.70;84.90;;;;;;4942162;29;20078;-61
2023/01/10 03:44:42;;;;;;;1.57;0.60;;;32.00;84.50;;;;;;4905366;29;20170;-61
2023/01/10 03:45:28;;;;;;;3.40;0.93;;;32.20;84.50;;;;;;4905959;29;20626;-61
2023/01/10 03:47:57;;;;;;;3.05;0.90;;;32.00;86.30;;;;;;4903395;29;20035;-68
2023/01/10 03:50:27;;;;;;;1.70;1.10;;;32.10;87.50;;;;;;4903666;29;20111;-68
2023/01/10 03:52:54;;;;;;;3.83;1.20;;;32.10;85.60;;;;;;4958013;28;20069;-69
2023/01/10 03:55:25;;;;;;;4.50;1.15;;;31.80;86.10;;;;;;4964824;28;20027;-69
2023/01/10 03:57:52;;;;;;;2.92;0.90;;;31.90;86.30;;;;;;4964449;28;20030;-69
2023/01/10 04:00:20;;;;;;;4.80;1.10;;;31.70;87.90;;;;;;4965023;28;20350;-70
2023/01/10 04:02:47;;;;;;;2.55;1.08;;;31.70;86.40;;;;;;4966840;28;20480;-69
2023/01/10 04:05:14;;;;;;;4.10;0.95;;;31.80;86.90;;;;;;4962060;28;20042;-62
2023/01/10 04:07:41;;;;;;;1.45;0.55;;;31.80;87.90;;;;;;4960816;28;20057;-73
2023/01/10 04:10:09;;;;;;;1.77;0.75;;;31.90;86.90;;;;;;4963607;28;20037;-71
2023/01/10 04:12:36;;;;;;;3.10;1.10;;;31.80;87.50;;;;;;4962940;28;20042;-68
2023/01/10 04:15:03;;;;;;;3.83;1.10;;;31.80;87.00;;;;;;4962371;28;20404;-72
2023/01/10 04:17:30;;;;;;;1.83;1.00;;;32.10;86.30;;;;;;4972121;28;20044;-70
2023/01/10 04:19:57;;;;;;;1.60;0.88;;;32.10;86.90;;;;;;5023958;28;20028;-63
2023/01/10 04:22:24;;;;;;;3.25;0.90;;;32.50;86.30;;;;;;5023069;28;20026;-67
2023/01/10 04:24:52;;;;;;;2.85;0.98;;;32.70;86.70;;;;;;5019716;28;20098;-64
2023/01/10 04:27:19;;;;;;;3.38;1.00;;;32.40;86.20;;;;;;5024357;28;20141;-65
2023/01/10 04:29:47;;;;;;;2.17;0.80;;;32.10;86.60;;;;;;5024206;28;20065;-62
2023/01/10 04:32:14;;;;;;;1.70;0.82;;;31.70;86.70;;;;;;5023768;28;20521;-63
2023/01/10 04:34:41;;;;;;;2.45;1.23;;;31.40;89.10;;;;;;5023967;28;20056;-63
2023/01/10 04:37:08;;;;;;;2.45;0.88;;;31.80;86.90;;;;;;5021846;28;20037;-65
2023/01/10 04:39:34;;;;;;;2.60;1.08;;;31.60;86.80;;;;;;5024314;28;20035;-64
2023/01/10 04:42:01;;;;;;;2.55;1.05;;;31.60;87.40;;;;;;5021042;28;20393;-72
2023/01/10 04:44:28;;;;;;;1.58;0.98;;;31.40;87.40;;;;;;5017858;28;20564;-67
2023/01/10 04:47:01;;;;;;;2.72;1.00;;;31.40;89.30;;;;;;4874262;28;10000585;-62
2023/01/10 04:49:28;;;;;;;2.80;0.73;;;31.10;87.30;;;;;;5020286;28;21029;-68
2023/01/10 04:51:55;;;;;;;2.40;0.98;;;31.10;87.90;;;;;;5017383;28;20040;-72
2023/01/10 04:54:22;;;;;;;1.35;1.02;;;31.40;86.50;;;;;;4675611;28;10000067;-62
2023/01/10 04:56:51;;;;;;;1.27;0.73;;;31.50;86.20;;;;;;5020798;28;20056;-72
2023/01/10 04:59:18;;;;;;;0.98;0.65;;;30.80;87.20;;;;;;5017824;28;20132;-67
2023/01/10 05:01:45;;;;;;;1.33;1.00;;;30.50;88.20;;;;;;5020866;28;20018;-66
2023/01/10 05:04:13;;;;;;;1.67;0.82;;;30.70;87.90;;;;;;5020720;28;20029;-62
2023/01/10 05:06:39;;;;;;;1.80;0.90;;;31.50;85.90;;;;;;5021700;28;20106;-70
2023/01/10 05:09:07;;;;;;;2.85;1.00;;;31.50;85.60;;;;;;5021211;28;20028;-65
2023/01/10 05:11:34;;;;;;;2.40;1.27;;;31.70;86.40;;;;;;5013827;28;20396;-72
2023/01/10 05:14:02;;;;;;;2.53;1.10;;;32.20;85.10;;;;;;5021030;28;20094;-63
2023/01/10 05:16:29;;;;;;;3.70;1.30;;;32.30;84.60;;;;;;5019960;28;20503;-60
2023/01/10 05:18:56;;;;;;;4.35;0.85;;;31.40;85.40;;;;;;5014786;28;20087;-70
2023/01/10 05:21:23;;;;;;;2.80;1.42;;;31.40;86.40;;;;;;5021576;28;20067;-63
2023/01/10 05:23:50;;;;;;;2.63;1.13;;;31.40;86.20;;;;;;5019621;28;20029;-63
2023/01/10 05:26:21;;;;;;;1.73;0.80;;;31.00;87.30;;;;;;5021564;28;20245;-60
2023/01/10 05:28:48;;;;;;;3.60;0.80;;;30.90;89.00;;;;;;5021348;28;20037;-73
2023/01/10 05:31:18;;;;;;;3.50;1.02;;;31.00;87.50;;;;;;5022908;28;20085;-61
2023/01/10 05:33:50;;;;;;;2.33;0.98;;;31.30;88.00;;;;;;5021483;28;20581;-63
2023/01/10 05:36:18;;;;;;;2.97;0.90;;;31.40;87.00;;;;;;5022628;28;20471;-71
2023/01/10 05:38:45;;;;;;;2.90;1.30;;;30.70;87.00;;;;;;5017904;28;20029;-63
2023/01/10 05:41:12;;;;;;;4.53;1.10;;;30.30;89.00;;;;;;5020498;28;20029;-66
2023/01/10 05:43:40;;;;;;;3.22;1.30;;;30.30;88.50;;;;;;5019858;28;20017;-64
2023/01/10 05:46:07;;;;;;;3.70;1.38;;;30.50;88.10;;;;;;5020441;28;20091;-62
2023/01/10 05:48:34;;;;;;;4.80;1.10;;;30.70;88.90;;;;;;5022470;28;20025;-64
2023/01/10 05:51:01;;;;;;;2.67;1.20;;;31.00;87.40;;;;;;5018683;28;20075;-67
2023/01/10 05:53:28;;;;;;;1.95;0.90;;;31.10;87.00;;;;;;5016644;28;20405;-64
2023/01/10 05:55:59;;;;;;;1.92;1.00;;;31.30;86.60;;;;;;5016930;28;20046;-60
2023/01/10 05:58:27;;;;;;;1.95;0.95;;;31.20;86.00;;;;;;5020121;28;20033;-66
2023/01/10 06:00:55;;;;;;;3.28;1.02;;;31.10;86.60;;;;;;5024555;28;20033;-59
2023/01/10 06:03:23;;;;;;;3.88;1.30;;;31.00;86.80;;;;;;5026312;28;20167;-62
2023/01/10 06:05:50;;;;;;;2.45;1.52;;;31.40;86.40;;;;;;5022790;28;20053;-62
2023/01/10 06:08:17;;;;;;;2.55;1.13;;;31.50;86.50;;;;;;5022307;28;20033;-62
2023/01/10 06:10:44;;;;;;;2.25;1.02;;;31.00;86.80;;;;;;5018252;28;20859;-59
2023/01/10 06:13:11;;;;;;;1.85;0.82;;;30.70;88.20;;;;;;4668537;28;9999721;-65
2023/01/10 06:15:38;;;;;;;3.55;0.90;;;30.30;89.60;;;;;;4675298;28;9999825;-68
2023/01/10 06:18:06;;;;;;;3.55;1.10;;;30.40;89.00;;;;;;5014591;28;20025;-65
2023/01/10 06:20:33;;;;;;;2.78;1.00;;;30.40;90.20;;;;;;5018403;28;20052;-61
2023/01/10 06:23:03;;;;;;;3.22;1.02;;;30.80;88.90;;;;;;5016470;28;20104;-64
2023/01/10 06:25:32;;;;;;;3.05;1.13;;;31.10;88.20;;;;;;5016357;28;20045;-63
2023/01/10 06:27:59;;;;;;;1.33;0.98;;;31.00;88.70;;;;;;5018267;28;20037;-63
2023/01/10 06:30:26;;;;;;;2.42;0.90;;;31.30;87.50;;;;;;5014093;28;20080;-59
2023/01/10 06:32:53;;;;;;;3.38;1.20;;;32.00;86.40;;;;;;5021094;28;20033;-70
2023/01/10 06:35:20;;;;;;;4.07;1.67;;;32.40;86.00;;;;;;5020639;28;20095;-63
2023/01/10 06:37:47;;;;;;;2.60;1.10;;;32.30;87.00;;;;;;5018886;28;20247;-71
2023/01/10 06:40:14;;;;;;;1.85;0.88;;;31.60;87.60;;;;;;5014580;28;20652;-63
2023/01/10 06:42:40;;;;;;;3.33;0.80;;;31.20;87.40;;;;;;5017334;28;20087;-72
2023/01/10 06:45:08;;;;;;;1.52;0.80;;;31.00;88.20;;;;;;5017487;28;20183;-69
2023/01/10 06:47:36;;;;;;;1.75;0.80;;;30.80;87.80;;;;;;5018358;28;20017;-71
2023/01/10 06:50:04;;;;;;;1.25;0.60;;;31.00;89.30;;;;;;5014215;28;20030;-64
2023/01/10 06:52:31;;;;;;;2.03;0.85;;;31.10;87.80;;;;;;5015521;28;20386;-73
2023/01/10 06:54:58;;;;;;;3.05;0.88;;;31.20;89.40;;;;;;5016269;28;20435;-61
2023/01/10 06:57:27;;;;;;;2.45;0.80;;;31.80;86.90;;;;;;5020540;28;20044;-64
2023/01/10 06:59:54;;;;;;;2.33;0.88;;;31.80;87.00;;;;;;3631688;28;10000813;-63
2023/01/10 07:02:21;;;;;;;2.17;0.80;;;31.60;86.60;;;;;;4670230;28;9999798;-65
2023/01/10 07:04:48;;;;;;;3.42;0.93;;;32.20;86.00;;;;;;5018349;28;20064;-59
2023/01/10 07:07:15;;;;;;;2.38;0.60;;;32.00;85.40;;;;;;5022960;28;20048;-72
2023/01/10 07:09:43;;;;;;;1.63;0.68;;;31.50;86.80;;;;;;5020379;28;20403;-65
2023/01/10 07:12:10;;;;;;;1.75;1.02;;;31.30;86.20;;;;;;5023528;28;20437;-64
2023/01/10 07:14:37;;;;;;;1.90;0.70;;;30.70;87.40;;;;;;5023578;28;20112;-63
2023/01/10 07:17:04;;;;;;;2.83;0.70;;;30.90;86.70;;;;;;5021700;28;20144;-69
2023/01/10 07:19:30;;;;;;;2.38;0.80;;;30.50;87.50;;;;;;5023052;28;20060;-60
2023/01/10 07:21:57;;;;;;;2.58;0.80;;;30.00;90.20;;;;;;5022559;28;20021;-66
2023/01/10 07:24:25;;;;;;;2.97;1.23;;;30.70;89.80;;;;;;5022889;28;20025;-61
2023/01/10 07:26:55;;;;;;;1.83;0.93;;;31.40;86.80;;;;;;5024024;28;20457;-61
2023/01/10 07:29:22;;;;;;;1.55;0.70;;;31.40;85.90;;;;;;5023050;28;20116;-59
2023/01/10 07:31:49;;;;;;;5.07;2.97;;;30.30;88.20;;;;;;5020913;28;20030;-62
2023/01/10 07:34:16;;;;;;;26.90;17.52;;;30.10;90.30;;;;;;5024105;28;20041;-59
2023/01/10 07:36:42;;;;;;;2.13;1.23;;;31.00;87.60;;;;;;5023522;28;20463;-70
2023/01/10 07:39:10;;;;;;;1.63;0.80;;;31.60;86.90;;;;;;5016778;28;20115;-61
2023/01/10 07:41:36;;;;;;;2.63;1.00;;;31.50;84.90;;;;;;5019719;28;20021;-61
2023/01/10 07:44:04;;;;;;;2.05;1.27;;;30.80;87.80;;;;;;5019666;28;20127;-68
2023/01/10 07:46:30;;;;;;;3.10;0.80;;;31.00;86.10;;;;;;5023510;28;20473;-68
2023/01/10 07:48:57;;;;;;;6.40;4.90;;;31.30;85.60;;;;;;5023468;28;20029;-60
2023/01/10 07:51:24;;;;;;;23.63;18.17;;;31.40;86.10;;;;;;5021667;28;20030;-67
2023/01/10 07:53:51;;;;;;;8.18;3.92;;;31.40;86.00;;;;;;5020895;28;20439;-66
2023/01/10 07:56:18;;;;;;;13.55;9.20;;;30.70;86.20;;;;;;5022537;28;20766;-68
2023/01/10 07:58:45;;;;;;;84.47;57.42;;;30.40;87.40;;;;;;5021806;28;20117;-69
2023/01/10 08:01:12;;;;;;;52.30;39.70;;;30.30;87.90;;;;;;5022620;28;20025;-60
2023/01/10 08:03:39;;;;;;;92.07;67.57;;;30.00;88.40;;;;;;5019793;28;20120;-59
2023/01/10 08:06:11;;;;;;;452.85;358.02;;;29.70;89.30;;;;;;5020491;28;20282;-59
2023/01/10 08:08:38;;;;;;;;;;;29.70;90.20;;;;;;5022321;28;20019;-59
2023/01/10 08:11:05;;;;;;;61.30;42.72;;;30.30;89.10;;;;;;5023120;28;19909;-61
2023/01/10 08:13:32;;;;;;;14.23;9.70;;;30.30;88.80;;;;;;5022278;28;20134;-67
2023/01/10 08:16:03;;;;;;;2.47;1.23;;;29.90;89.20;;;;;;5021700;28;20392;-69
2023/01/10 08:18:30;;;;;;;2.83;0.98;;;29.80;89.50;;;;;;5017227;28;20603;-67
2023/01/10 08:20:57;;;;;;;9.27;5.75;;;29.40;90.30;;;;;;5022426;28;20010;-68
2023/01/10 08:23:24;;;;;;;8.82;4.78;;;28.70;91.10;;;;;;5020582;28;20025;-68
2023/01/10 08:25:52;;;;;;;3.25;0.77;;;28.80;91.30;;;;;;5022461;28;20068;-66
2023/01/10 08:28:19;;;;;;;1.58;0.70;;;28.90;90.80;;;;;;5018651;28;20033;-69
2023/01/10 08:30:46;;;;;;;2.20;0.60;;;28.70;90.40;;;;;;5023531;28;20067;-70
2023/01/10 08:33:13;;;;;;;4.40;0.95;;;27.80;91.60;;;;;;5021554;28;20067;-67
2023/01/10 08:35:42;;;;;;;2.45;0.70;;;27.50;92.10;;;;;;5023208;28;20128;-65
2023/01/10 08:38:10;;;;;;;2.85;0.80;;;26.90;92.50;;;;;;5022581;28;20555;-72
2023/01/10 08:40:37;;;;;;;2.63;1.00;;;26.50;93.20;;;;;;5020882;28;20022;-58
2023/01/10 08:43:06;;;;;;;1.30;0.65;;;26.10;93.80;;;;;;5019014;28;20017;-66
2023/01/10 08:45:36;;;;;;;2.15;0.55;;;25.60;94.30;;;;;;5015827;28;20289;-66
2023/01/10 08:48:04;;;;;;;2.55;0.55;;;25.10;95.00;;;;;;5018190;28;20248;-67
2023/01/10 08:50:31;;;;;;;2.67;0.80;;;24.60;96.20;;;;;;5018200;28;20033;-63
2023/01/10 08:52:59;;;;;;;1.90;0.70;;;24.20;96.90;;;;;;5014362;28;20055;-63
2023/01/10 08:55:27;;;;;;;2.30;0.60;;;23.80;97.60;;;;;;5017462;28;20034;-62
2023/01/10 08:57:54;;;;;;;2.33;0.90;;;23.40;98.30;;;;;;5013181;28;20140;-68
2023/01/10 09:00:22;;;;;;;1.98;0.80;;;23.30;98.90;;;;;;5018800;28;20022;-65
2023/01/10 09:02:49;;;;;;;0.57;0.40;;;23.10;99.60;;;;;;5017730;28;20022;-70
2023/01/10 09:05:16;;;;;;;2.92;0.88;;;22.90;99.90;;;;;;5017517;28;20423;-62
2023/01/10 09:07:43;;;;;;;2.55;0.73;;;22.90;99.90;;;;;;5015570;28;20049;-63
2023/01/10 09:10:10;;;;;;;1.88;1.00;;;22.80;99.90;;;;;;5017992;28;20544;-69
2023/01/10 09:12:55;;;;;;;3.72;1.02;;;22.60;99.90;;;;;;5014922;28;20026;-67
2023/01/10 09:15:24;;;;;;;1.90;0.90;;;22.50;99.90;;;;;;5017053;28;20036;-66
2023/01/10 09:17:57;;;;;;;1.98;0.90;;;22.30;99.90;;;;;;5012830;28;20028;-68
2023/01/10 09:20:26;;;;;;;2.90;1.00;;;22.20;99.90;;;;;;5015253;28;20539;-67
2023/01/10 09:22:53;;;;;;;4.70;3.95;;;22.10;99.90;;;;;;5018871;28;20029;-65
2023/01/10 09:25:20;;;;;;;3.33;0.98;;;22.10;99.90;;;;;;5019903;28;20198;-64
2023/01/10 09:27:47;;;;;;;2.45;1.20;;;22.00;99.90;;;;;;5019090;28;20017;-65
2023/01/10 09:30:15;;;;;;;4.25;1.20;;;22.00;99.90;;;;;;5018457;28;20046;-64
2023/01/10 09:32:41;;;;;;;2.33;0.90;;;22.00;99.90;;;;;;5017960;28;20421;-62
2023/01/10 09:35:08;;;;;;;2.78;1.08;;;22.00;99.90;;;;;;5014635;28;20022;-61
2023/01/10 09:37:36;;;;;;;2.65;0.73;;;22.00;99.90;;;;;;5019135;28;20025;-62
2023/01/10 09:40:05;;;;;;;1.15;0.65;;;22.00;99.90;;;;;;5020189;28;20022;-62
2023/01/10 09:43:00;;;;;;;3.65;1.20;;;22.00;99.90;;;;;;5019462;28;20494;-62
2023/01/10 09:45:54;;;;;;;3.72;0.82;;;21.90;99.90;;;;;;5021560;28;20021;-58
2023/01/10 09:48:35;;;;;;;1.67;0.68;;;21.90;99.90;;;;;;5022284;28;20407;-60
2023/01/10 09:51:29;;;;;;;5.20;0.73;;;21.90;99.90;;;;;;5021003;28;20448;-62
2023/01/10 09:54:02;;;;;;;2.00;0.70;;;21.90;99.90;;;;;;5023261;28;20028;-62
2023/01/10 09:56:30;;;;;;;2.40;0.95;;;21.90;99.90;;;;;;5023496;28;20021;-65
2023/01/10 09:58:59;;;;;;;1.30;0.57;;;21.90;99.90;;;;;;5020875;28;20032;-59
2023/01/10 10:01:35;;;;;;;1.92;0.73;;;21.90;99.90;;;;;;5023484;28;20141;-61
2023/01/10 10:04:30;;;;;;;3.17;0.90;;;21.80;99.90;;;;;;5015092;28;20095;-60
2023/01/10 10:06:56;;;;;;;1.90;0.70;;;21.80;99.90;;;;;;5023079;28;20025;-66
2023/01/10 10:09:27;;;;;;;1.52;0.82;;;21.70;99.90;;;;;;5019375;28;20037;-63
2023/01/10 10:12:32;;;;;;;2.65;0.90;;;21.70;99.90;;;;;;5016281;28;20037;-70
2023/01/10 10:15:18;;;;;;;2.60;1.00;;;21.70;99.90;;;;;;5022338;28;20120;-64
2023/01/10 10:17:57;;;;;;;1.98;0.60;;;21.60;99.90;;;;;;5021555;28;20025;-59
2023/01/10 10:20:38;;;;;;;5.28;1.02;;;21.60;99.90;;;;;;5017699;28;20036;-65
2023/01/10 10:23:17;;;;;;;2.67;0.87;;;21.60;99.90;;;;;;5019595;28;20033;-63
2023/01/10 10:26:23;;;;;;;2.60;0.65;;;21.50;99.90;;;;;;5026841;28;20034;-70
2023/01/10 10:29:01;;;;;;;1.30;0.70;;;21.50;99.90;;;;;;4999727;28;20327;-69
2023/01/10 10:32:12;;;;;;;3.65;0.70;;;21.40;99.90;;;;;;5002806;28;20503;-59
2023/01/10 10:35:04;;;;;;;4.43;0.82;;;21.40;99.90;;;;;;4909182;29;20706;-65
2023/01/10 10:37:42;;;;;;;3.05;0.95;;;21.50;99.90;;;;;;4906700;29;20044;-60
2023/01/10 10:40:20;;;;;;;3.70;0.88;;;21.40;99.90;;;;;;4909057;29;20439;-58
2023/01/10 10:42:53;;;;;;;1.48;0.68;;;21.50;99.90;;;;;;4916313;29;20055;-61
2023/01/10 10:45:41;;;;;;;2.47;0.77;;;21.40;99.90;;;;;;4907088;29;20028;-64
2023/01/10 10:48:29;;;;;;;3.05;0.90;;;21.40;99.90;;;;;;4907053;29;20254;-68
2023/01/10 10:51:19;;;;;;;2.05;0.63;;;21.30;99.90;;;;;;4909572;29;20561;-65
2023/01/10 10:53:47;;;;;;;1.90;0.60;;;21.30;99.90;;;;;;4903280;29;20079;-61
2023/01/10 10:56:18;;;;;;;1.77;0.55;;;21.30;99.90;;;;;;4905953;29;20772;-59
2023/01/10 10:58:50;;;;;;;2.92;0.80;;;21.20;99.90;;;;;;4906921;29;20043;-61
2023/01/10 11:01:19;;;;;;;3.75;1.00;;;21.20;99.90;;;;;;4906816;29;20048;-64
2023/01/10 11:03:54;;;;;;;5.07;1.02;;;21.30;99.90;;;;;;4908614;29;20113;-60
2023/01/10 11:06:23;;;;;;;3.55;0.85;;;21.30;99.90;;;;;;4919023;29;20639;-64
2023/01/10 11:08:54;;;;;;;3.13;0.77;;;21.20;99.90;;;;;;4974095;28;20041;-60
2023/01/10 11:11:28;;;;;;;2.95;0.88;;;21.20;99.90;;;;;;5024829;28;20037;-59
2023/01/10 11:14:01;;;;;;;1.05;0.70;;;21.20;99.90;;;;;;5023615;28;20211;-63
2023/01/10 11:16:29;;;;;;;;;;;21.20;99.90;;;;;;5024308;28;20025;-69
2023/01/10 11:19:25;;;;;;;1.75;0.85;;;21.20;99.90;;;;;;5024890;28;19913;-60
2023/01/10 11:21:56;;;;;;;3.38;0.90;;;21.20;99.90;;;;;;4998175;28;20396;-64
2023/01/10 11:24:41;;;;;;;2.10;0.65;;;21.20;99.90;;;;;;4993033;28;20377;-60
2023/01/10 11:27:18;;;;;;;5.13;1.05;;;21.00;99.90;;;;;;4991195;28;20044;-66
2023/01/10 11:29:52;;;;;;;2.53;1.00;;;20.90;99.90;;;;;;4997780;28;20080;-68
2023/01/10 11:32:22;;;;;;;3.80;0.90;;;20.90;99.90;;;;;;4982078;28;20046;-68
2023/01/10 11:34:59;;;;;;;2.25;0.80;;;20.90;99.90;;;;;;4995881;28;20086;-66
2023/01/10 11:37:31;;;;;;;4.65;1.35;;;21.10;99.90;;;;;;4989858;28;20048;-62
2023/01/10 11:40:16;;;;;;;2.20;0.88;;;21.20;99.90;;;;;;4987799;28;20128;-66
2023/01/10 11:42:43;;;;;;;3.63;1.13;;;21.30;99.90;;;;;;4990268;28;20116;-67
2023/01/10 11:45:34;;;;;;;2.97;0.82;;;21.40;99.90;;;;;;4995872;28;20038;-64
2023/01/10 11:48:20;;;;;;;2.00;0.98;;;21.30;99.90;;;;;;4989811;28;20034;-67
2023/01/10 11:50:54;;;;;;;3.20;0.60;;;21.20;99.90;;;;;;4995581;28;20405;-66
2023/01/10 11:53:42;;;;;;;2.90;0.95;;;21.10;99.90;;;;;;4995309;28;20030;-62
2023/01/10 11:56:22;;;;;;;2.92;0.88;;;21.00;99.90;;;;;;4992986;28;20041;-63
2023/01/10 11:58:49;;;;;;;1.67;0.80;;;21.00;99.90;;;;;;4667624;28;10000558;-63
2023/01/10 12:01:47;;;;;;;3.10;0.90;;;21.00;99.90;;;;;;5025092;28;20390;-61
2023/01/10 12:04:15;;;;;;;2.78;0.75;;;21.00;99.90;;;;;;5025181;28;20033;-68
2023/01/10 12:06:48;;;;;;;3.33;0.82;;;21.10;99.90;;;;;;5027047;28;20039;-67
2023/01/10 12:09:43;;;;;;;2.10;0.80;;;21.10;99.90;;;;;;5023457;28;20029;-68
2023/01/10 12:12:21;;;;;;;2.72;0.85;;;21.10;99.90;;;;;;5001423;28;20124;-61
2023/01/10 12:14:49;;;;;;;1.23;0.82;;;21.10;99.90;;;;;;5001997;28;20034;-60
2023/01/10 12:17:33;;;;;;;1.70;0.80;;;21.00;99.90;;;;;;5001453;28;20053;-62
2023/01/10 12:20:02;;;;;;;3.28;0.85;;;21.10;99.90;;;;;;5004304;28;20056;-61
2023/01/10 12:22:39;;;;;;;3.28;1.08;;;21.20;99.90;;;;;;5002878;28;20081;-67
2023/01/10 12:25:18;;;;;;;3.88;1.13;;;21.30;99.90;;;;;;5005651;28;20068;-68
2023/01/10 12:27:48;;;;;;;2.30;0.68;;;21.40;99.90;;;;;;5007244;28;20113;-63
2023/01/10 12:30:39;;;;;;;2.05;0.80;;;21.40;99.90;;;;;;5005249;28;20078;-66
2023/01/10 12:33:14;;;;;;;3.58;0.80;;;21.50;99.90;;;;;;5000916;28;20029;-68
2023/01/10 12:35:51;;;;;;;5.43;0.88;;;21.60;99.90;;;;;;5006121;28;20050;-67
2023/01/10 12:44:42;;;;;;;3.17;0.80;;;21.60;99.90;;;;;;4963468;28;20037;-65
2023/01/10 12:47:32;;;;;;;2.42;1.10;;;21.70;99.90;;;;;;4965274;28;20098;-60
2023/01/10 12:49:59;;;;;;;3.15;1.02;;;21.60;99.90;;;;;;4982171;28;20042;-67
2023/01/10 12:52:29;;;;;;;5.68;1.15;;;21.50;99.90;;;;;;4987431;28;20030;-67
2023/01/10 12:54:56;;;;;;;3.97;0.95;;;21.50;99.90;;;;;;4985163;28;20039;-66
2023/01/10 12:57:54;;;;;;;2.00;0.73;;;21.60;99.90;;;;;;4978724;28;20031;-68
2023/01/10 13:00:32;;;;;;;5.88;1.08;;;21.80;99.90;;;;;;4983980;28;20467;-68
2023/01/10 13:03:02;;;;;;;4.55;0.85;;;21.70;99.90;;;;;;4985260;28;20182;-66
2023/01/10 13:05:31;;;;;;;3.22;0.82;;;21.70;99.90;;;;;;4982349;28;20026;-67
2023/01/10 13:08:11;;;;;;;2.33;0.73;;;21.80;99.90;;;;;;4985239;28;20029;-59
2023/01/10 13:10:44;;;;;;;2.15;0.60;;;21.70;99.90;;;;;;4985592;28;20018;-67
2023/01/10 13:13:36;;;;;;;3.20;1.00;;;21.70;99.90;;;;;;4985252;28;20030;-60
2023/01/10 13:16:22;;;;;;;3.58;1.00;;;21.60;99.90;;;;;;5016706;28;20041;-61
2023/01/10 13:19:21;;;;;;;2.78;0.95;;;21.40;99.90;;;;;;5027539;28;20025;-60
2023/01/10 13:21:48;;;;;;;2.55;0.77;;;21.50;99.90;;;;;;4974938;28;20030;-67
2023/01/10 13:24:28;;;;;;;3.90;1.35;;;21.50;99.90;;;;;;4980838;28;20019;-62
2023/01/10 13:26:59;;;;;;;4.18;1.42;;;21.40;99.90;;;;;;4981198;28;20039;-67
2023/01/10 13:29:40;;;;;;;1.67;1.00;;;21.40;99.90;;;;;;4996026;23;20065;-60